sensor_id;sensor_type;location;lat;lon;timestamp;P1;durP1;ratioP1;P2;durP2;ratioP2
4895;SDS011;2463;49.948;8.472;2023-04-01T00:01:14;94.07;;;5.78;;
4895;SDS011;2463;49.948;8.472;2023-04-01T00:03:42;91.95;;;5.38;;
4895;SDS011;2463;49.948;8.472;2023-04-01T00:06:13;91.18;;;5.13;;
4895;SDS011;2463;49.948;8.472;2023-04-01T00:08:43;98.00;;;5.32;;
4895;SDS011;2463;49.948;8.472;2023-04-01T00:11:11;92.30;;;4.88;;
4895;SDS011;2463;49.948;8.472;2023-04-01T00:13:37;93.35;;;5.70;;
4895;SDS011;2463;49.948;8.472;2023-04-01T00:16:04;93.60;;;4.80;;
4895;SDS011;2463;49.948;8.472;2023-04-01T00:18:45;101.93;;;5.10;;
4895;SDS011;2463;49.948;8.472;2023-04-01T00:21:13;92.80;;;5.00;;
4895;SDS011;2463;49.948;8.472;2023-04-01T00:23:40;91.38;;;4.70;;
4895;SDS011;2463;49.948;8.472;2023-04-01T00:26:07;90.30;;;4.80;;
4895;SDS011;2463;49.948;8.472;2023-04-01T00:28:34;96.50;;;5.15;;
4895;SDS011;2463;49.948;8.472;2023-04-01T00:31:05;92.38;;;4.90;;
4895;SDS011;2463;49.948;8.472;2023-04-01T00:33:33;92.10;;;4.80;;
4895;SDS011;2463;49.948;8.472;2023-04-01T00:36:12;95.50;;;4.93;;
4895;SDS011;2463;49.948;8.472;2023-04-01T00:38:41;99.63;;;5.43;;
4895;SDS011;2463;49.948;8.472;2023-04-01T00:41:09;91.20;;;4.82;;
4895;SDS011;2463;49.948;8.472;2023-04-01T00:43:41;91.68;;;5.53;;
4895;SDS011;2463;49.948;8.472;2023-04-01T00:46:09;89.72;;;4.78;;
4895;SDS011;2463;49.948;8.472;2023-04-01T00:48:38;89.97;;;4.63;;
4895;SDS011;2463;49.948;8.472;2023-04-01T00:51:12;90.43;;;5.03;;
4895;SDS011;2463;49.948;8.472;2023-04-01T00:53:43;92.55;;;4.95;;
4895;SDS011;2463;49.948;8.472;2023-04-01T00:56:14;89.38;;;4.68;;
4895;SDS011;2463;49.948;8.472;2023-04-01T00:58:45;91.53;;;5.05;;
4895;SDS011;2463;49.948;8.472;2023-04-01T01:01:15;91.97;;;4.82;;
4895;SDS011;2463;49.948;8.472;2023-04-01T01:03:42;91.60;;;4.78;;
4895;SDS011;2463;49.948;8.472;2023-04-01T01:06:10;94.45;;;4.85;;
4895;SDS011;2463;49.948;8.472;2023-04-01T01:11:51;91.40;;;5.30;;
4895;SDS011;2463;49.948;8.472;2023-04-01T01:17:47;95.32;;;6.30;;
4895;SDS011;2463;49.948;8.472;2023-04-01T01:37:16;95.10;;;5.13;;
4895;SDS011;2463;49.948;8.472;2023-04-01T01:39:48;89.35;;;4.75;;
4895;SDS011;2463;49.948;8.472;2023-04-01T01:42:20;92.88;;;4.80;;
4895;SDS011;2463;49.948;8.472;2023-04-01T01:44:50;91.97;;;4.60;;
4895;SDS011;2463;49.948;8.472;2023-04-01T01:47:19;92.07;;;5.00;;
4895;SDS011;2463;49.948;8.472;2023-04-01T01:49:48;94.43;;;4.85;;
4895;SDS011;2463;49.948;8.472;2023-04-01T01:52:16;89.72;;;5.00;;
4895;SDS011;2463;49.948;8.472;2023-04-01T01:54:53;92.65;;;4.85;;
4895;SDS011;2463;49.948;8.472;2023-04-01T01:57:23;91.80;;;5.15;;
4895;SDS011;2463;49.948;8.472;2023-04-01T01:59:55;91.97;;;5.07;;
4895;SDS011;2463;49.948;8.472;2023-04-01T02:02:26;90.38;;;4.43;;
4895;SDS011;2463;49.948;8.472;2023-04-01T02:04:57;90.03;;;4.60;;
4895;SDS011;2463;49.948;8.472;2023-04-01T02:07:26;91.78;;;4.85;;
4895;SDS011;2463;49.948;8.472;2023-04-01T02:09:56;92.32;;;4.60;;
4895;SDS011;2463;49.948;8.472;2023-04-01T02:12:23;93.10;;;5.00;;
4895;SDS011;2463;49.948;8.472;2023-04-01T02:15:05;90.45;;;4.70;;
4895;SDS011;2463;49.948;8.472;2023-04-01T02:17:37;92.13;;;5.50;;
4895;SDS011;2463;49.948;8.472;2023-04-01T02:22:38;95.35;;;4.75;;
4895;SDS011;2463;49.948;8.472;2023-04-01T02:25:09;91.97;;;4.85;;
4895;SDS011;2463;49.948;8.472;2023-04-01T02:27:40;93.88;;;4.88;;
4895;SDS011;2463;49.948;8.472;2023-04-01T02:30:09;89.75;;;4.70;;
4895;SDS011;2463;49.948;8.472;2023-04-01T02:32:37;90.53;;;5.10;;
4895;SDS011;2463;49.948;8.472;2023-04-01T02:35:15;96.15;;;4.78;;
4895;SDS011;2463;49.948;8.472;2023-04-01T02:37:43;89.93;;;4.55;;
4895;SDS011;2463;49.948;8.472;2023-04-01T02:40:14;90.93;;;4.95;;
4895;SDS011;2463;49.948;8.472;2023-04-01T02:42:42;89.13;;;4.78;;
4895;SDS011;2463;49.948;8.472;2023-04-01T02:45:09;90.47;;;4.85;;
4895;SDS011;2463;49.948;8.472;2023-04-01T02:47:36;91.50;;;5.25;;
4895;SDS011;2463;49.948;8.472;2023-04-01T02:50:03;90.85;;;5.10;;
4895;SDS011;2463;49.948;8.472;2023-04-01T02:52:31;92.85;;;4.63;;
4895;SDS011;2463;49.948;8.472;2023-04-01T02:54:57;89.88;;;4.95;;
4895;SDS011;2463;49.948;8.472;2023-04-01T02:57:24;89.95;;;4.90;;
4895;SDS011;2463;49.948;8.472;2023-04-01T02:59:51;89.88;;;4.75;;
4895;SDS011;2463;49.948;8.472;2023-04-01T03:02:18;93.25;;;4.72;;
4895;SDS011;2463;49.948;8.472;2023-04-01T03:04:45;95.53;;;4.88;;
4895;SDS011;2463;49.948;8.472;2023-04-01T03:07:11;93.53;;;4.85;;
4895;SDS011;2463;49.948;8.472;2023-04-01T03:09:38;91.15;;;4.82;;
4895;SDS011;2463;49.948;8.472;2023-04-01T03:12:05;93.55;;;4.60;;
4895;SDS011;2463;49.948;8.472;2023-04-01T03:14:32;91.97;;;4.63;;
4895;SDS011;2463;49.948;8.472;2023-04-01T03:16:59;92.35;;;5.10;;
4895;SDS011;2463;49.948;8.472;2023-04-01T03:19:26;88.78;;;4.50;;
4895;SDS011;2463;49.948;8.472;2023-04-01T03:21:52;91.90;;;4.90;;
4895;SDS011;2463;49.948;8.472;2023-04-01T03:24:19;93.30;;;4.68;;
4895;SDS011;2463;49.948;8.472;2023-04-01T03:26:46;90.75;;;4.88;;
4895;SDS011;2463;49.948;8.472;2023-04-01T03:29:13;95.18;;;4.88;;
4895;SDS011;2463;49.948;8.472;2023-04-01T03:31:41;90.45;;;4.85;;
4895;SDS011;2463;49.948;8.472;2023-04-01T03:34:08;90.78;;;4.80;;
4895;SDS011;2463;49.948;8.472;2023-04-01T03:36:35;89.60;;;4.90;;
4895;SDS011;2463;49.948;8.472;2023-04-01T03:39:02;90.30;;;4.55;;
4895;SDS011;2463;49.948;8.472;2023-04-01T03:41:29;94.57;;;4.70;;
4895;SDS011;2463;49.948;8.472;2023-04-01T03:43:56;91.07;;;4.80;;
4895;SDS011;2463;49.948;8.472;2023-04-01T03:46:23;98.75;;;4.90;;
4895;SDS011;2463;49.948;8.472;2023-04-01T03:48:50;90.50;;;5.13;;
4895;SDS011;2463;49.948;8.472;2023-04-01T03:51:17;92.47;;;5.00;;
4895;SDS011;2463;49.948;8.472;2023-04-01T03:53:43;91.78;;;4.80;;
4895;SDS011;2463;49.948;8.472;2023-04-01T03:56:11;92.00;;;4.82;;
4895;SDS011;2463;49.948;8.472;2023-04-01T03:58:38;94.03;;;5.32;;
4895;SDS011;2463;49.948;8.472;2023-04-01T04:01:18;91.93;;;4.72;;
4895;SDS011;2463;49.948;8.472;2023-04-01T04:03:47;97.68;;;4.97;;
4895;SDS011;2463;49.948;8.472;2023-04-01T04:06:16;98.63;;;5.32;;
4895;SDS011;2463;49.948;8.472;2023-04-01T04:08:44;91.50;;;5.40;;
4895;SDS011;2463;49.948;8.472;2023-04-01T04:11:11;92.25;;;4.90;;
4895;SDS011;2463;49.948;8.472;2023-04-01T04:13:38;89.28;;;4.50;;
4895;SDS011;2463;49.948;8.472;2023-04-01T04:16:05;95.82;;;5.40;;
4895;SDS011;2463;49.948;8.472;2023-04-01T04:18:32;90.97;;;4.70;;
4895;SDS011;2463;49.948;8.472;2023-04-01T04:20:59;91.07;;;4.72;;
4895;SDS011;2463;49.948;8.472;2023-04-01T04:23:26;91.22;;;4.68;;
4895;SDS011;2463;49.948;8.472;2023-04-01T04:25:55;91.25;;;4.65;;
4895;SDS011;2463;49.948;8.472;2023-04-01T04:28:24;90.32;;;4.70;;
4895;SDS011;2463;49.948;8.472;2023-04-01T04:30:52;90.72;;;4.80;;
4895;SDS011;2463;49.948;8.472;2023-04-01T04:33:20;91.07;;;4.60;;
4895;SDS011;2463;49.948;8.472;2023-04-01T04:35:47;90.68;;;4.65;;
4895;SDS011;2463;49.948;8.472;2023-04-01T04:38:15;90.68;;;4.78;;
4895;SDS011;2463;49.948;8.472;2023-04-01T04:40:42;93.70;;;4.97;;
4895;SDS011;2463;49.948;8.472;2023-04-01T04:43:11;93.53;;;5.20;;
4895;SDS011;2463;49.948;8.472;2023-04-01T04:45:38;93.00;;;6.00;;
4895;SDS011;2463;49.948;8.472;2023-04-01T04:48:09;92.13;;;5.05;;
4895;SDS011;2463;49.948;8.472;2023-04-01T04:50:37;94.88;;;5.20;;
4895;SDS011;2463;49.948;8.472;2023-04-01T04:53:03;88.63;;;4.50;;
4895;SDS011;2463;49.948;8.472;2023-04-01T04:55:30;89.43;;;4.60;;
4895;SDS011;2463;49.948;8.472;2023-04-01T04:57:57;90.63;;;4.85;;
4895;SDS011;2463;49.948;8.472;2023-04-01T05:00:24;89.95;;;4.65;;
4895;SDS011;2463;49.948;8.472;2023-04-01T05:02:51;91.47;;;4.70;;
4895;SDS011;2463;49.948;8.472;2023-04-01T05:05:18;91.28;;;5.20;;
4895;SDS011;2463;49.948;8.472;2023-04-01T05:07:44;91.10;;;4.90;;
4895;SDS011;2463;49.948;8.472;2023-04-01T05:10:11;88.97;;;4.45;;
4895;SDS011;2463;49.948;8.472;2023-04-01T05:12:38;90.75;;;5.20;;
4895;SDS011;2463;49.948;8.472;2023-04-01T05:15:05;91.55;;;4.47;;
4895;SDS011;2463;49.948;8.472;2023-04-01T05:17:32;94.43;;;5.15;;
4895;SDS011;2463;49.948;8.472;2023-04-01T05:19:59;92.95;;;4.80;;
4895;SDS011;2463;49.948;8.472;2023-04-01T05:22:25;104.47;;;5.63;;
4895;SDS011;2463;49.948;8.472;2023-04-01T05:24:52;90.75;;;4.38;;
4895;SDS011;2463;49.948;8.472;2023-04-01T05:27:19;97.63;;;4.80;;
4895;SDS011;2463;49.948;8.472;2023-04-01T05:29:46;90.85;;;4.80;;
4895;SDS011;2463;49.948;8.472;2023-04-01T05:32:13;91.78;;;4.50;;
4895;SDS011;2463;49.948;8.472;2023-04-01T05:34:39;94.10;;;4.60;;
4895;SDS011;2463;49.948;8.472;2023-04-01T05:37:06;92.53;;;5.13;;
4895;SDS011;2463;49.948;8.472;2023-04-01T05:39:39;89.05;;;4.50;;
4895;SDS011;2463;49.948;8.472;2023-04-01T05:42:06;88.75;;;4.50;;
4895;SDS011;2463;49.948;8.472;2023-04-01T05:44:34;90.65;;;4.80;;
4895;SDS011;2463;49.948;8.472;2023-04-01T05:47:01;93.47;;;4.75;;
4895;SDS011;2463;49.948;8.472;2023-04-01T05:49:29;89.22;;;4.60;;
4895;SDS011;2463;49.948;8.472;2023-04-01T05:51:56;92.45;;;6.35;;
4895;SDS011;2463;49.948;8.472;2023-04-01T05:54:23;93.05;;;4.90;;
4895;SDS011;2463;49.948;8.472;2023-04-01T05:56:49;93.60;;;4.70;;
4895;SDS011;2463;49.948;8.472;2023-04-01T05:59:16;92.93;;;4.90;;
4895;SDS011;2463;49.948;8.472;2023-04-01T06:01:43;91.45;;;4.70;;
4895;SDS011;2463;49.948;8.472;2023-04-01T06:04:12;92.18;;;5.75;;
4895;SDS011;2463;49.948;8.472;2023-04-01T06:06:41;89.15;;;4.50;;
4895;SDS011;2463;49.948;8.472;2023-04-01T06:09:42;90.13;;;4.90;;
4895;SDS011;2463;49.948;8.472;2023-04-01T06:14:37;89.65;;;5.03;;
4895;SDS011;2463;49.948;8.472;2023-04-01T06:31:20;91.25;;;4.72;;
4895;SDS011;2463;49.948;8.472;2023-04-01T06:42:04;90.22;;;4.50;;
4895;SDS011;2463;49.948;8.472;2023-04-01T06:50:07;89.07;;;4.50;;
4895;SDS011;2463;49.948;8.472;2023-04-01T06:52:54;89.13;;;4.40;;
4895;SDS011;2463;49.948;8.472;2023-04-01T06:58:04;92.30;;;4.45;;
4895;SDS011;2463;49.948;8.472;2023-04-01T07:00:36;89.78;;;4.50;;
4895;SDS011;2463;49.948;8.472;2023-04-01T07:06:13;89.05;;;4.60;;
4895;SDS011;2463;49.948;8.472;2023-04-01T07:08:50;89.75;;;5.00;;
4895;SDS011;2463;49.948;8.472;2023-04-01T07:11:24;90.00;;;4.50;;
4895;SDS011;2463;49.948;8.472;2023-04-01T07:14:40;90.05;;;4.50;;
4895;SDS011;2463;49.948;8.472;2023-04-01T07:19:53;91.35;;;4.90;;
4895;SDS011;2463;49.948;8.472;2023-04-01T07:22:43;90.50;;;4.60;;
4895;SDS011;2463;49.948;8.472;2023-04-01T07:25:15;90.40;;;4.25;;
4895;SDS011;2463;49.948;8.472;2023-04-01T07:27:47;89.43;;;4.63;;
4895;SDS011;2463;49.948;8.472;2023-04-01T07:30:15;92.47;;;4.85;;
4895;SDS011;2463;49.948;8.472;2023-04-01T07:41:07;88.32;;;4.13;;
4895;SDS011;2463;49.948;8.472;2023-04-01T07:44:03;88.72;;;4.35;;
4895;SDS011;2463;49.948;8.472;2023-04-01T07:52:27;88.55;;;4.28;;
4895;SDS011;2463;49.948;8.472;2023-04-01T07:55:09;88.53;;;4.22;;
4895;SDS011;2463;49.948;8.472;2023-04-01T07:58:03;88.65;;;4.10;;
4895;SDS011;2463;49.948;8.472;2023-04-01T08:00:57;88.80;;;4.13;;
4895;SDS011;2463;49.948;8.472;2023-04-01T08:06:32;88.82;;;4.22;;
4895;SDS011;2463;49.948;8.472;2023-04-01T08:09:06;89.13;;;4.50;;
4895;SDS011;2463;49.948;8.472;2023-04-01T08:20:26;88.68;;;4.43;;
4895;SDS011;2463;49.948;8.472;2023-04-01T08:31:11;88.45;;;4.20;;
4895;SDS011;2463;49.948;8.472;2023-04-01T08:33:42;88.03;;;4.20;;
4895;SDS011;2463;49.948;8.472;2023-04-01T08:36:22;90.07;;;4.30;;
4895;SDS011;2463;49.948;8.472;2023-04-01T08:38:55;88.40;;;4.30;;
4895;SDS011;2463;49.948;8.472;2023-04-01T08:47:09;88.38;;;4.18;;
4895;SDS011;2463;49.948;8.472;2023-04-01T09:01:13;88.45;;;4.15;;
4895;SDS011;2463;49.948;8.472;2023-04-01T09:12:25;88.13;;;4.05;;
4895;SDS011;2463;49.948;8.472;2023-04-01T09:23:52;88.32;;;4.25;;
4895;SDS011;2463;49.948;8.472;2023-04-01T09:26:52;88.30;;;4.15;;
4895;SDS011;2463;49.948;8.472;2023-04-01T09:29:50;87.28;;;4.05;;
4895;SDS011;2463;49.948;8.472;2023-04-01T09:44:15;87.75;;;4.05;;
4895;SDS011;2463;49.948;8.472;2023-04-01T09:55:02;89.03;;;4.18;;
4895;SDS011;2463;49.948;8.472;2023-04-01T09:57:55;87.50;;;3.90;;
4895;SDS011;2463;49.948;8.472;2023-04-01T10:00:50;87.72;;;4.05;;
4895;SDS011;2463;49.948;8.472;2023-04-01T10:03:46;88.18;;;4.00;;
4895;SDS011;2463;49.948;8.472;2023-04-01T10:06:32;87.97;;;4.18;;
4895;SDS011;2463;49.948;8.472;2023-04-01T10:11:59;87.22;;;4.10;;
4895;SDS011;2463;49.948;8.472;2023-04-01T10:37:23;87.68;;;4.13;;
4895;SDS011;2463;49.948;8.472;2023-04-01T10:51:46;87.68;;;4.07;;
4895;SDS011;2463;49.948;8.472;2023-04-01T10:54:40;88.03;;;3.97;;
4895;SDS011;2463;49.948;8.472;2023-04-01T11:03:10;87.07;;;3.95;;
4895;SDS011;2463;49.948;8.472;2023-04-01T11:14:35;86.95;;;3.67;;
4895;SDS011;2463;49.948;8.472;2023-04-01T11:17:13;87.13;;;3.88;;
4895;SDS011;2463;49.948;8.472;2023-04-01T11:23:02;87.95;;;3.78;;
4895;SDS011;2463;49.948;8.472;2023-04-01T11:28:40;87.63;;;4.00;;
4895;SDS011;2463;49.948;8.472;2023-04-01T11:40:17;87.63;;;3.97;;
4895;SDS011;2463;49.948;8.472;2023-04-01T11:43:06;87.18;;;3.95;;
4895;SDS011;2463;49.948;8.472;2023-04-01T11:57:05;87.43;;;4.10;;
4895;SDS011;2463;49.948;8.472;2023-04-01T12:17:03;87.85;;;4.00;;
4895;SDS011;2463;49.948;8.472;2023-04-01T12:22:31;87.88;;;4.18;;
4895;SDS011;2463;49.948;8.472;2023-04-01T12:25:22;87.72;;;4.13;;
4895;SDS011;2463;49.948;8.472;2023-04-01T12:30:51;87.53;;;4.00;;
4895;SDS011;2463;49.948;8.472;2023-04-01T12:33:34;87.60;;;3.97;;
4895;SDS011;2463;49.948;8.472;2023-04-01T12:36:26;87.18;;;4.07;;
4895;SDS011;2463;49.948;8.472;2023-04-01T12:39:21;87.63;;;4.07;;
4895;SDS011;2463;49.948;8.472;2023-04-01T12:44:41;87.43;;;3.88;;
4895;SDS011;2463;49.948;8.472;2023-04-01T12:47:24;87.63;;;4.00;;
4895;SDS011;2463;49.948;8.472;2023-04-01T12:50:26;86.88;;;3.72;;
4895;SDS011;2463;49.948;8.472;2023-04-01T12:56:09;87.53;;;4.05;;
4895;SDS011;2463;49.948;8.472;2023-04-01T12:59:00;87.68;;;4.10;;
4895;SDS011;2463;49.948;8.472;2023-04-01T13:01:55;87.72;;;4.10;;
4895;SDS011;2463;49.948;8.472;2023-04-01T13:28:40;88.32;;;4.00;;
4895;SDS011;2463;49.948;8.472;2023-04-01T13:31:18;89.18;;;4.10;;
4895;SDS011;2463;49.948;8.472;2023-04-01T13:37:10;87.22;;;4.00;;
4895;SDS011;2463;49.948;8.472;2023-04-01T13:54:27;87.65;;;4.00;;
4895;SDS011;2463;49.948;8.472;2023-04-01T14:02:47;87.32;;;3.90;;
4895;SDS011;2463;49.948;8.472;2023-04-01T14:05:53;87.82;;;4.03;;
4895;SDS011;2463;49.948;8.472;2023-04-01T14:08:33;87.32;;;3.90;;
4895;SDS011;2463;49.948;8.472;2023-04-01T14:24:56;87.22;;;4.00;;
4895;SDS011;2463;49.948;8.472;2023-04-01T14:30:40;87.70;;;3.90;;
4895;SDS011;2463;49.948;8.472;2023-04-01T14:41:45;87.53;;;3.90;;
4895;SDS011;2463;49.948;8.472;2023-04-01T14:44:18;87.55;;;4.10;;
4895;SDS011;2463;49.948;8.472;2023-04-01T14:47:32;87.85;;;3.90;;
4895;SDS011;2463;49.948;8.472;2023-04-01T14:50:27;87.53;;;3.85;;
4895;SDS011;2463;49.948;8.472;2023-04-01T14:58:09;88.00;;;4.10;;
4895;SDS011;2463;49.948;8.472;2023-04-01T15:03:32;88.00;;;4.10;;
4895;SDS011;2463;49.948;8.472;2023-04-01T15:08:52;87.18;;;3.90;;
4895;SDS011;2463;49.948;8.472;2023-04-01T15:14:39;87.10;;;4.00;;
4895;SDS011;2463;49.948;8.472;2023-04-01T15:20:33;87.75;;;3.92;;
4895;SDS011;2463;49.948;8.472;2023-04-01T15:23:43;89.03;;;4.07;;
4895;SDS011;2463;49.948;8.472;2023-04-01T15:31:46;87.40;;;3.80;;
4895;SDS011;2463;49.948;8.472;2023-04-01T15:36:53;87.75;;;3.78;;
4895;SDS011;2463;49.948;8.472;2023-04-01T15:39:37;87.20;;;3.78;;
4895;SDS011;2463;49.948;8.472;2023-04-01T15:42:12;87.45;;;3.80;;
4895;SDS011;2463;49.948;8.472;2023-04-01T15:48:10;87.72;;;3.90;;
4895;SDS011;2463;49.948;8.472;2023-04-01T15:50:51;88.05;;;4.00;;
4895;SDS011;2463;49.948;8.472;2023-04-01T15:53:28;87.32;;;4.00;;
4895;SDS011;2463;49.948;8.472;2023-04-01T16:01:48;87.07;;;4.00;;
4895;SDS011;2463;49.948;8.472;2023-04-01T16:07:27;87.90;;;4.45;;
4895;SDS011;2463;49.948;8.472;2023-04-01T16:13:17;87.57;;;3.95;;
4895;SDS011;2463;49.948;8.472;2023-04-01T16:21:56;88.68;;;4.20;;
4895;SDS011;2463;49.948;8.472;2023-04-01T16:24:49;87.53;;;3.95;;
4895;SDS011;2463;49.948;8.472;2023-04-01T16:30:57;87.80;;;4.20;;
4895;SDS011;2463;49.948;8.472;2023-04-01T16:36:24;87.45;;;4.07;;
4895;SDS011;2463;49.948;8.472;2023-04-01T16:41:35;87.82;;;4.13;;
4895;SDS011;2463;49.948;8.472;2023-04-01T16:44:17;87.72;;;4.10;;
4895;SDS011;2463;49.948;8.472;2023-04-01T16:46:52;88.13;;;4.18;;
4895;SDS011;2463;49.948;8.472;2023-04-01T16:49:30;88.30;;;4.07;;
4895;SDS011;2463;49.948;8.472;2023-04-01T17:02:54;87.82;;;4.20;;
4895;SDS011;2463;49.948;8.472;2023-04-01T17:11:10;89.60;;;4.10;;
4895;SDS011;2463;49.948;8.472;2023-04-01T17:19:18;87.72;;;4.00;;
4895;SDS011;2463;49.948;8.472;2023-04-01T17:30:23;88.85;;;4.22;;
4895;SDS011;2463;49.948;8.472;2023-04-01T17:32:58;88.35;;;4.20;;
4895;SDS011;2463;49.948;8.472;2023-04-01T17:35:32;87.70;;;4.03;;
4895;SDS011;2463;49.948;8.472;2023-04-01T17:43:45;88.03;;;4.10;;
4895;SDS011;2463;49.948;8.472;2023-04-01T18:00:54;88.22;;;4.07;;
4895;SDS011;2463;49.948;8.472;2023-04-01T18:12:43;90.15;;;4.30;;
4895;SDS011;2463;49.948;8.472;2023-04-01T18:21:30;88.18;;;4.20;;
4895;SDS011;2463;49.948;8.472;2023-04-01T18:32:37;91.07;;;4.43;;
4895;SDS011;2463;49.948;8.472;2023-04-01T18:37:53;88.65;;;4.07;;
4895;SDS011;2463;49.948;8.472;2023-04-01T18:40:37;88.90;;;4.15;;
4895;SDS011;2463;49.948;8.472;2023-04-01T18:43:22;89.88;;;4.20;;
4895;SDS011;2463;49.948;8.472;2023-04-01T18:46:05;88.75;;;4.15;;
4895;SDS011;2463;49.948;8.472;2023-04-01T18:54:22;88.78;;;4.47;;
4895;SDS011;2463;49.948;8.472;2023-04-01T18:56:50;88.35;;;4.35;;
4895;SDS011;2463;49.948;8.472;2023-04-01T18:59:25;88.68;;;4.20;;
4895;SDS011;2463;49.948;8.472;2023-04-01T19:02:20;89.60;;;4.18;;
4895;SDS011;2463;49.948;8.472;2023-04-01T19:05:14;88.47;;;4.38;;
4895;SDS011;2463;49.948;8.472;2023-04-01T19:07:49;88.10;;;4.18;;
4895;SDS011;2463;49.948;8.472;2023-04-01T19:13:06;88.55;;;4.50;;
4895;SDS011;2463;49.948;8.472;2023-04-01T19:26:35;88.68;;;4.60;;
4895;SDS011;2463;49.948;8.472;2023-04-01T19:32:57;88.65;;;4.30;;
4895;SDS011;2463;49.948;8.472;2023-04-01T19:40:44;88.63;;;4.43;;
4895;SDS011;2463;49.948;8.472;2023-04-01T19:43:46;88.82;;;4.28;;
4895;SDS011;2463;49.948;8.472;2023-04-01T19:52:55;92.07;;;4.55;;
4895;SDS011;2463;49.948;8.472;2023-04-01T20:00:57;88.53;;;4.45;;
4895;SDS011;2463;49.948;8.472;2023-04-01T20:03:31;88.43;;;4.32;;
4895;SDS011;2463;49.948;8.472;2023-04-01T20:08:40;88.38;;;4.50;;
4895;SDS011;2463;49.948;8.472;2023-04-01T20:11:28;88.65;;;4.30;;
4895;SDS011;2463;49.948;8.472;2023-04-01T20:17:15;88.38;;;4.50;;
4895;SDS011;2463;49.948;8.472;2023-04-01T20:19:59;90.03;;;4.60;;
4895;SDS011;2463;49.948;8.472;2023-04-01T20:25:12;88.40;;;4.40;;
4895;SDS011;2463;49.948;8.472;2023-04-01T20:30:40;89.63;;;4.55;;
4895;SDS011;2463;49.948;8.472;2023-04-01T20:33:30;88.95;;;4.20;;
4895;SDS011;2463;49.948;8.472;2023-04-01T20:36:23;88.22;;;4.22;;
4895;SDS011;2463;49.948;8.472;2023-04-01T20:39:27;89.45;;;4.38;;
4895;SDS011;2463;49.948;8.472;2023-04-01T20:50:21;88.75;;;4.28;;
4895;SDS011;2463;49.948;8.472;2023-04-01T20:58:28;88.85;;;4.40;;
4895;SDS011;2463;49.948;8.472;2023-04-01T21:06:29;93.78;;;4.50;;
4895;SDS011;2463;49.948;8.472;2023-04-01T21:11:41;89.05;;;4.78;;
4895;SDS011;2463;49.948;8.472;2023-04-01T21:23:10;88.95;;;4.40;;
4895;SDS011;2463;49.948;8.472;2023-04-01T21:28:57;88.95;;;4.60;;
4895;SDS011;2463;49.948;8.472;2023-04-01T21:31:47;88.18;;;4.47;;
4895;SDS011;2463;49.948;8.472;2023-04-01T21:43:33;89.18;;;4.60;;
4895;SDS011;2463;49.948;8.472;2023-04-01T21:49:09;88.70;;;4.82;;
4895;SDS011;2463;49.948;8.472;2023-04-01T21:52:00;88.95;;;4.70;;
4895;SDS011;2463;49.948;8.472;2023-04-01T21:55:07;90.60;;;4.70;;
4895;SDS011;2463;49.948;8.472;2023-04-01T22:00:53;89.03;;;4.78;;
4895;SDS011;2463;49.948;8.472;2023-04-01T22:06:26;88.63;;;4.60;;
4895;SDS011;2463;49.948;8.472;2023-04-01T22:14:47;89.75;;;4.80;;
4895;SDS011;2463;49.948;8.472;2023-04-01T22:17:41;89.10;;;4.80;;
4895;SDS011;2463;49.948;8.472;2023-04-01T22:20:28;88.85;;;4.70;;
4895;SDS011;2463;49.948;8.472;2023-04-01T22:23:20;89.18;;;5.00;;
4895;SDS011;2463;49.948;8.472;2023-04-01T22:26:14;88.95;;;4.80;;
4895;SDS011;2463;49.948;8.472;2023-04-01T22:28:45;88.80;;;4.50;;
4895;SDS011;2463;49.948;8.472;2023-04-01T22:32:03;88.78;;;4.60;;
4895;SDS011;2463;49.948;8.472;2023-04-01T22:37:21;89.13;;;4.50;;
4895;SDS011;2463;49.948;8.472;2023-04-01T22:43:08;88.47;;;4.40;;
4895;SDS011;2463;49.948;8.472;2023-04-01T22:45:51;89.05;;;4.50;;
4895;SDS011;2463;49.948;8.472;2023-04-01T22:48:43;89.15;;;4.70;;
4895;SDS011;2463;49.948;8.472;2023-04-01T22:54:13;92.30;;;4.80;;
4895;SDS011;2463;49.948;8.472;2023-04-01T22:56:49;89.32;;;4.70;;
4895;SDS011;2463;49.948;8.472;2023-04-01T23:02:22;91.43;;;4.78;;
4895;SDS011;2463;49.948;8.472;2023-04-01T23:04:56;88.35;;;4.53;;
4895;SDS011;2463;49.948;8.472;2023-04-01T23:10:03;89.65;;;4.85;;
4895;SDS011;2463;49.948;8.472;2023-04-01T23:12:38;89.32;;;4.82;;
4895;SDS011;2463;49.948;8.472;2023-04-01T23:15:10;88.50;;;4.70;;
4895;SDS011;2463;49.948;8.472;2023-04-01T23:18:02;89.35;;;5.00;;
4895;SDS011;2463;49.948;8.472;2023-04-01T23:23:24;92.45;;;4.60;;
4895;SDS011;2463;49.948;8.472;2023-04-01T23:26:02;88.85;;;4.75;;
4895;SDS011;2463;49.948;8.472;2023-04-01T23:28:53;88.95;;;4.55;;
4895;SDS011;2463;49.948;8.472;2023-04-01T23:33:59;88.32;;;4.45;;
4895;SDS011;2463;49.948;8.472;2023-04-01T23:36:28;89.72;;;4.88;;
4895;SDS011;2463;49.948;8.472;2023-04-01T23:38:58;89.80;;;4.78;;
4895;SDS011;2463;49.948;8.472;2023-04-01T23:41:29;89.28;;;4.93;;
4895;SDS011;2463;49.948;8.472;2023-04-01T23:44:03;89.07;;;4.72;;
4895;SDS011;2463;49.948;8.472;2023-04-01T23:46:34;89.30;;;4.90;;
4895;SDS011;2463;49.948;8.472;2023-04-01T23:49:02;89.53;;;4.60;;
4895;SDS011;2463;49.948;8.472;2023-04-01T23:51:36;89.43;;;4.88;;
4895;SDS011;2463;49.948;8.472;2023-04-01T23:54:19;89.10;;;4.75;;
4895;SDS011;2463;49.948;8.472;2023-04-01T23:56:57;89.85;;;4.80;;
4895;SDS011;2463;49.948;8.472;2023-04-01T23:59:32;90.55;;;4.82;;
